sensor_id;sensor_type;location;lat;lon;timestamp;P1;durP1;ratioP1;P2;durP2;ratioP2
17636;SDS011;8937;51.236;6.794;2022-12-18T00:06:17;5.27;;;4.03;;
17636;SDS011;8937;51.236;6.794;2022-12-18T00:14:39;6.37;;;3.63;;
17636;SDS011;8937;51.236;6.794;2022-12-18T00:23:09;6.73;;;3.50;;
17636;SDS011;8937;51.236;6.794;2022-12-18T00:31:31;5.57;;;3.83;;
17636;SDS011;8937;51.236;6.794;2022-12-18T00:39:54;5.00;;;3.77;;
17636;SDS011;8937;51.236;6.794;2022-12-18T00:48:15;5.63;;;4.07;;
17636;SDS011;8937;51.236;6.794;2022-12-18T00:56:38;8.37;;;4.47;;
17636;SDS011;8937;51.236;6.794;2022-12-18T01:05:00;7.40;;;3.93;;
17636;SDS011;8937;51.236;6.794;2022-12-18T01:13:23;6.07;;;3.93;;
17636;SDS011;8937;51.236;6.794;2022-12-18T01:21:44;5.90;;;4.00;;
17636;SDS011;8937;51.236;6.794;2022-12-18T01:30:08;6.27;;;4.13;;
17636;SDS011;8937;51.236;6.794;2022-12-18T01:38:30;4.53;;;3.80;;
17636;SDS011;8937;51.236;6.794;2022-12-18T01:46:52;4.73;;;3.53;;
17636;SDS011;8937;51.236;6.794;2022-12-18T01:55:14;4.80;;;3.60;;
17636;SDS011;8937;51.236;6.794;2022-12-18T02:03:40;5.30;;;3.60;;
17636;SDS011;8937;51.236;6.794;2022-12-18T02:12:04;6.50;;;4.10;;
17636;SDS011;8937;51.236;6.794;2022-12-18T02:20:30;8.03;;;4.20;;
17636;SDS011;8937;51.236;6.794;2022-12-18T02:28:55;4.87;;;3.77;;
17636;SDS011;8937;51.236;6.794;2022-12-18T02:37:18;5.83;;;4.07;;
17636;SDS011;8937;51.236;6.794;2022-12-18T02:45:47;7.30;;;4.30;;
17636;SDS011;8937;51.236;6.794;2022-12-18T02:54:10;4.00;;;3.50;;
17636;SDS011;8937;51.236;6.794;2022-12-18T03:02:35;4.60;;;3.23;;
17636;SDS011;8937;51.236;6.794;2022-12-18T03:10:59;3.80;;;3.47;;
17636;SDS011;8937;51.236;6.794;2022-12-18T03:19:24;4.57;;;3.43;;
17636;SDS011;8937;51.236;6.794;2022-12-18T03:27:47;5.73;;;3.33;;
17636;SDS011;8937;51.236;6.794;2022-12-18T03:36:11;6.77;;;3.97;;
17636;SDS011;8937;51.236;6.794;2022-12-18T03:44:34;4.43;;;3.47;;
17636;SDS011;8937;51.236;6.794;2022-12-18T03:52:59;4.30;;;3.10;;
17636;SDS011;8937;51.236;6.794;2022-12-18T04:01:28;3.97;;;3.10;;
17636;SDS011;8937;51.236;6.794;2022-12-18T04:09:53;3.50;;;3.03;;
17636;SDS011;8937;51.236;6.794;2022-12-18T04:18:15;3.37;;;3.07;;
17636;SDS011;8937;51.236;6.794;2022-12-18T04:26:38;4.27;;;3.33;;
17636;SDS011;8937;51.236;6.794;2022-12-18T04:34:59;3.97;;;3.27;;
17636;SDS011;8937;51.236;6.794;2022-12-18T04:43:22;4.57;;;3.30;;
17636;SDS011;8937;51.236;6.794;2022-12-18T04:51:43;4.47;;;3.20;;
17636;SDS011;8937;51.236;6.794;2022-12-18T05:00:07;6.17;;;3.47;;
17636;SDS011;8937;51.236;6.794;2022-12-18T05:08:28;4.80;;;3.33;;
17636;SDS011;8937;51.236;6.794;2022-12-18T05:16:51;3.63;;;3.30;;
17636;SDS011;8937;51.236;6.794;2022-12-18T05:25:13;4.53;;;3.13;;
17636;SDS011;8937;51.236;6.794;2022-12-18T05:33:36;5.87;;;3.30;;
17636;SDS011;8937;51.236;6.794;2022-12-18T05:41:57;4.73;;;3.20;;
17636;SDS011;8937;51.236;6.794;2022-12-18T05:50:20;4.97;;;3.47;;
17636;SDS011;8937;51.236;6.794;2022-12-18T05:58:41;3.17;;;2.70;;
17636;SDS011;8937;51.236;6.794;2022-12-18T06:07:04;5.10;;;2.93;;
17636;SDS011;8937;51.236;6.794;2022-12-18T06:15:26;4.43;;;3.40;;
17636;SDS011;8937;51.236;6.794;2022-12-18T06:23:48;4.03;;;3.30;;
17636;SDS011;8937;51.236;6.794;2022-12-18T06:32:10;6.10;;;3.23;;
17636;SDS011;8937;51.236;6.794;2022-12-18T06:40:32;7.07;;;3.73;;
17636;SDS011;8937;51.236;6.794;2022-12-18T06:48:54;6.70;;;3.77;;
17636;SDS011;8937;51.236;6.794;2022-12-18T06:57:17;3.60;;;3.30;;
17636;SDS011;8937;51.236;6.794;2022-12-18T07:05:39;5.97;;;3.60;;
17636;SDS011;8937;51.236;6.794;2022-12-18T07:14:02;5.00;;;3.50;;
17636;SDS011;8937;51.236;6.794;2022-12-18T07:22:24;4.97;;;3.80;;
17636;SDS011;8937;51.236;6.794;2022-12-18T07:30:47;5.47;;;3.67;;
17636;SDS011;8937;51.236;6.794;2022-12-18T07:39:10;7.17;;;4.20;;
17636;SDS011;8937;51.236;6.794;2022-12-18T07:47:33;6.83;;;4.50;;
17636;SDS011;8937;51.236;6.794;2022-12-18T07:55:55;6.67;;;4.13;;
17636;SDS011;8937;51.236;6.794;2022-12-18T08:04:18;9.63;;;4.97;;
17636;SDS011;8937;51.236;6.794;2022-12-18T08:12:39;8.37;;;4.60;;
17636;SDS011;8937;51.236;6.794;2022-12-18T08:21:08;7.77;;;4.27;;
17636;SDS011;8937;51.236;6.794;2022-12-18T08:29:30;6.23;;;4.37;;
17636;SDS011;8937;51.236;6.794;2022-12-18T08:37:53;8.40;;;5.00;;
17636;SDS011;8937;51.236;6.794;2022-12-18T08:46:14;6.80;;;4.27;;
17636;SDS011;8937;51.236;6.794;2022-12-18T08:54:37;5.90;;;3.83;;
17636;SDS011;8937;51.236;6.794;2022-12-18T09:02:59;7.97;;;4.83;;
17636;SDS011;8937;51.236;6.794;2022-12-18T09:11:23;6.20;;;4.07;;
17636;SDS011;8937;51.236;6.794;2022-12-18T09:19:45;6.20;;;4.30;;
17636;SDS011;8937;51.236;6.794;2022-12-18T09:28:09;6.00;;;4.60;;
17636;SDS011;8937;51.236;6.794;2022-12-18T09:36:31;6.93;;;4.13;;
17636;SDS011;8937;51.236;6.794;2022-12-18T09:44:54;6.80;;;4.60;;
17636;SDS011;8937;51.236;6.794;2022-12-18T09:53:16;6.07;;;4.33;;
17636;SDS011;8937;51.236;6.794;2022-12-18T10:01:41;6.23;;;4.47;;
17636;SDS011;8937;51.236;6.794;2022-12-18T10:10:03;5.93;;;4.57;;
17636;SDS011;8937;51.236;6.794;2022-12-18T10:18:32;5.43;;;4.70;;
17636;SDS011;8937;51.236;6.794;2022-12-18T10:26:59;7.10;;;4.53;;
17636;SDS011;8937;51.236;6.794;2022-12-18T10:35:30;6.10;;;4.43;;
17636;SDS011;8937;51.236;6.794;2022-12-18T10:44:10;7.73;;;4.83;;
17636;SDS011;8937;51.236;6.794;2022-12-18T10:52:32;7.13;;;4.87;;
17636;SDS011;8937;51.236;6.794;2022-12-18T11:01:05;6.37;;;4.40;;
17636;SDS011;8937;51.236;6.794;2022-12-18T11:09:28;6.53;;;4.60;;
17636;SDS011;8937;51.236;6.794;2022-12-18T11:17:50;5.33;;;4.20;;
17636;SDS011;8937;51.236;6.794;2022-12-18T11:26:13;7.23;;;4.13;;
17636;SDS011;8937;51.236;6.794;2022-12-18T11:34:34;9.47;;;4.93;;
17636;SDS011;8937;51.236;6.794;2022-12-18T11:42:59;8.37;;;5.30;;
17636;SDS011;8937;51.236;6.794;2022-12-18T11:51:25;13.17;;;4.60;;
17636;SDS011;8937;51.236;6.794;2022-12-18T11:59:50;6.80;;;4.80;;
17636;SDS011;8937;51.236;6.794;2022-12-18T12:08:15;7.90;;;4.77;;
17636;SDS011;8937;51.236;6.794;2022-12-18T12:16:41;10.13;;;5.77;;
17636;SDS011;8937;51.236;6.794;2022-12-18T12:25:11;10.83;;;5.90;;
17636;SDS011;8937;51.236;6.794;2022-12-18T12:33:38;9.30;;;5.80;;
17636;SDS011;8937;51.236;6.794;2022-12-18T12:42:02;10.57;;;6.07;;
17636;SDS011;8937;51.236;6.794;2022-12-18T12:50:44;8.50;;;5.27;;
17636;SDS011;8937;51.236;6.794;2022-12-18T12:59:08;9.87;;;6.43;;
17636;SDS011;8937;51.236;6.794;2022-12-18T13:07:35;12.83;;;6.93;;
17636;SDS011;8937;51.236;6.794;2022-12-18T13:16:03;15.87;;;7.33;;
17636;SDS011;8937;51.236;6.794;2022-12-18T13:24:27;15.77;;;7.83;;
17636;SDS011;8937;51.236;6.794;2022-12-18T13:32:52;13.43;;;6.93;;
17636;SDS011;8937;51.236;6.794;2022-12-18T13:41:35;13.27;;;7.57;;
17636;SDS011;8937;51.236;6.794;2022-12-18T13:49:56;10.23;;;6.90;;
17636;SDS011;8937;51.236;6.794;2022-12-18T13:58:19;10.77;;;6.50;;
17636;SDS011;8937;51.236;6.794;2022-12-18T14:06:40;16.83;;;8.93;;
17636;SDS011;8937;51.236;6.794;2022-12-18T14:15:09;12.23;;;7.70;;
17636;SDS011;8937;51.236;6.794;2022-12-18T14:23:39;16.67;;;8.67;;
17636;SDS011;8937;51.236;6.794;2022-12-18T14:32:06;15.33;;;8.33;;
17636;SDS011;8937;51.236;6.794;2022-12-18T14:40:28;15.97;;;7.57;;
17636;SDS011;8937;51.236;6.794;2022-12-18T14:48:51;13.30;;;7.93;;
17636;SDS011;8937;51.236;6.794;2022-12-18T14:57:15;13.37;;;7.73;;
17636;SDS011;8937;51.236;6.794;2022-12-18T15:05:40;14.70;;;8.47;;
17636;SDS011;8937;51.236;6.794;2022-12-18T15:22:39;16.73;;;8.80;;
17636;SDS011;8937;51.236;6.794;2022-12-18T15:31:02;18.57;;;8.43;;
17636;SDS011;8937;51.236;6.794;2022-12-18T15:39:25;13.60;;;8.03;;
17636;SDS011;8937;51.236;6.794;2022-12-18T15:47:46;16.40;;;8.70;;
17636;SDS011;8937;51.236;6.794;2022-12-18T15:56:10;17.40;;;9.80;;
17636;SDS011;8937;51.236;6.794;2022-12-18T16:04:50;14.97;;;8.80;;
17636;SDS011;8937;51.236;6.794;2022-12-18T16:13:14;17.53;;;8.83;;
17636;SDS011;8937;51.236;6.794;2022-12-18T16:21:36;13.50;;;7.67;;
17636;SDS011;8937;51.236;6.794;2022-12-18T16:30:03;13.07;;;7.37;;
17636;SDS011;8937;51.236;6.794;2022-12-18T16:38:24;16.73;;;9.73;;
17636;SDS011;8937;51.236;6.794;2022-12-18T16:46:47;17.83;;;9.97;;
17636;SDS011;8937;51.236;6.794;2022-12-18T16:55:08;18.93;;;10.63;;
17636;SDS011;8937;51.236;6.794;2022-12-18T17:03:31;17.30;;;9.67;;
17636;SDS011;8937;51.236;6.794;2022-12-18T17:11:53;19.67;;;10.20;;
17636;SDS011;8937;51.236;6.794;2022-12-18T17:20:16;30.57;;;16.93;;
17636;SDS011;8937;51.236;6.794;2022-12-18T17:28:38;24.40;;;11.47;;
17636;SDS011;8937;51.236;6.794;2022-12-18T17:37:01;29.07;;;16.77;;
17636;SDS011;8937;51.236;6.794;2022-12-18T17:45:22;21.73;;;11.73;;
17636;SDS011;8937;51.236;6.794;2022-12-18T17:53:45;30.88;;;18.38;;
17636;SDS011;8937;51.236;6.794;2022-12-18T18:02:08;23.37;;;12.53;;
17636;SDS011;8937;51.236;6.794;2022-12-18T18:10:31;20.50;;;11.03;;
17636;SDS011;8937;51.236;6.794;2022-12-18T18:18:57;23.53;;;11.60;;
17636;SDS011;8937;51.236;6.794;2022-12-18T18:27:20;24.80;;;11.87;;
17636;SDS011;8937;51.236;6.794;2022-12-18T18:35:42;20.30;;;10.47;;
17636;SDS011;8937;51.236;6.794;2022-12-18T18:44:04;20.70;;;9.97;;
17636;SDS011;8937;51.236;6.794;2022-12-18T18:52:27;24.03;;;11.50;;
17636;SDS011;8937;51.236;6.794;2022-12-18T19:00:54;20.10;;;11.33;;
17636;SDS011;8937;51.236;6.794;2022-12-18T19:09:16;21.90;;;11.30;;
17636;SDS011;8937;51.236;6.794;2022-12-18T19:17:38;26.77;;;12.70;;
17636;SDS011;8937;51.236;6.794;2022-12-18T19:26:00;19.80;;;11.00;;
17636;SDS011;8937;51.236;6.794;2022-12-18T19:34:23;31.03;;;11.57;;
17636;SDS011;8937;51.236;6.794;2022-12-18T19:42:45;21.13;;;10.60;;
17636;SDS011;8937;51.236;6.794;2022-12-18T19:51:09;21.70;;;10.57;;
17636;SDS011;8937;51.236;6.794;2022-12-18T19:59:32;21.03;;;9.67;;
17636;SDS011;8937;51.236;6.794;2022-12-18T20:07:54;20.73;;;10.30;;
17636;SDS011;8937;51.236;6.794;2022-12-18T20:16:16;21.43;;;11.00;;
17636;SDS011;8937;51.236;6.794;2022-12-18T20:24:39;21.90;;;11.10;;
17636;SDS011;8937;51.236;6.794;2022-12-18T20:33:00;22.17;;;10.43;;
17636;SDS011;8937;51.236;6.794;2022-12-18T20:41:23;21.73;;;10.77;;
17636;SDS011;8937;51.236;6.794;2022-12-18T20:49:44;18.40;;;9.13;;
17636;SDS011;8937;51.236;6.794;2022-12-18T20:58:07;23.20;;;11.03;;
17636;SDS011;8937;51.236;6.794;2022-12-18T21:06:28;21.73;;;10.87;;
17636;SDS011;8937;51.236;6.794;2022-12-18T21:14:51;21.63;;;9.87;;
17636;SDS011;8937;51.236;6.794;2022-12-18T21:23:12;16.83;;;9.20;;
17636;SDS011;8937;51.236;6.794;2022-12-18T21:31:35;25.80;;;11.97;;
17636;SDS011;8937;51.236;6.794;2022-12-18T21:39:57;17.53;;;9.83;;
17636;SDS011;8937;51.236;6.794;2022-12-18T21:48:19;17.80;;;9.43;;
17636;SDS011;8937;51.236;6.794;2022-12-18T21:56:41;21.17;;;10.53;;
17636;SDS011;8937;51.236;6.794;2022-12-18T22:05:04;21.90;;;11.03;;
17636;SDS011;8937;51.236;6.794;2022-12-18T22:13:26;22.03;;;11.07;;
17636;SDS011;8937;51.236;6.794;2022-12-18T22:21:49;22.30;;;11.00;;
17636;SDS011;8937;51.236;6.794;2022-12-18T22:30:10;21.10;;;9.83;;
17636;SDS011;8937;51.236;6.794;2022-12-18T22:38:34;18.83;;;9.77;;
17636;SDS011;8937;51.236;6.794;2022-12-18T22:46:56;19.03;;;9.73;;
17636;SDS011;8937;51.236;6.794;2022-12-18T22:55:18;18.43;;;9.73;;
17636;SDS011;8937;51.236;6.794;2022-12-18T23:03:40;24.00;;;10.80;;
17636;SDS011;8937;51.236;6.794;2022-12-18T23:12:03;23.30;;;10.03;;
17636;SDS011;8937;51.236;6.794;2022-12-18T23:20:25;19.40;;;9.90;;
17636;SDS011;8937;51.236;6.794;2022-12-18T23:28:48;22.33;;;10.30;;
17636;SDS011;8937;51.236;6.794;2022-12-18T23:37:10;18.20;;;9.80;;
17636;SDS011;8937;51.236;6.794;2022-12-18T23:45:36;19.70;;;9.93;;
17636;SDS011;8937;51.236;6.794;2022-12-18T23:53:58;21.50;;;9.40;;
